sensor_id;sensor_type;location;lat;lon;timestamp;P1;durP1;ratioP1;P2;durP2;ratioP2
10299;SDS011;5195;48.562;9.192;2023-08-12T00:01:39;6.03;;;5.53;;
10299;SDS011;5195;48.562;9.192;2023-08-12T00:04:05;5.33;;;4.97;;
10299;SDS011;5195;48.562;9.192;2023-08-12T00:06:31;5.90;;;5.30;;
10299;SDS011;5195;48.562;9.192;2023-08-12T00:08:56;5.63;;;5.30;;
10299;SDS011;5195;48.562;9.192;2023-08-12T00:11:22;5.63;;;5.10;;
10299;SDS011;5195;48.562;9.192;2023-08-12T00:13:47;6.37;;;5.12;;
10299;SDS011;5195;48.562;9.192;2023-08-12T00:16:13;5.73;;;5.43;;
10299;SDS011;5195;48.562;9.192;2023-08-12T00:18:38;6.22;;;5.40;;
10299;SDS011;5195;48.562;9.192;2023-08-12T00:21:07;5.63;;;5.17;;
10299;SDS011;5195;48.562;9.192;2023-08-12T00:23:37;6.00;;;5.50;;
10299;SDS011;5195;48.562;9.192;2023-08-12T00:25:59;4.77;;;4.37;;
10299;SDS011;5195;48.562;9.192;2023-08-12T00:28:25;6.70;;;5.30;;
10299;SDS011;5195;48.562;9.192;2023-08-12T00:30:50;5.80;;;5.40;;
10299;SDS011;5195;48.562;9.192;2023-08-12T00:33:16;6.00;;;5.43;;
10299;SDS011;5195;48.562;9.192;2023-08-12T00:35:42;6.23;;;5.57;;
10299;SDS011;5195;48.562;9.192;2023-08-12T00:38:08;6.43;;;5.60;;
10299;SDS011;5195;48.562;9.192;2023-08-12T00:40:33;5.67;;;5.37;;
10299;SDS011;5195;48.562;9.192;2023-08-12T00:42:59;5.90;;;5.53;;
10299;SDS011;5195;48.562;9.192;2023-08-12T00:45:24;7.22;;;6.53;;
10299;SDS011;5195;48.562;9.192;2023-08-12T00:47:50;6.07;;;5.53;;
10299;SDS011;5195;48.562;9.192;2023-08-12T00:50:15;6.05;;;5.50;;
10299;SDS011;5195;48.562;9.192;2023-08-12T00:52:41;5.50;;;5.10;;
10299;SDS011;5195;48.562;9.192;2023-08-12T00:55:07;6.33;;;5.77;;
10299;SDS011;5195;48.562;9.192;2023-08-12T00:57:33;6.00;;;5.40;;
10299;SDS011;5195;48.562;9.192;2023-08-12T00:59:59;6.22;;;5.70;;
10299;SDS011;5195;48.562;9.192;2023-08-12T01:02:24;5.97;;;4.83;;
10299;SDS011;5195;48.562;9.192;2023-08-12T01:04:50;6.40;;;5.82;;
10299;SDS011;5195;48.562;9.192;2023-08-12T01:07:15;6.93;;;5.60;;
10299;SDS011;5195;48.562;9.192;2023-08-12T01:09:41;5.97;;;5.57;;
10299;SDS011;5195;48.562;9.192;2023-08-12T01:12:09;5.97;;;5.50;;
10299;SDS011;5195;48.562;9.192;2023-08-12T01:17:02;5.70;;;5.20;;
10299;SDS011;5195;48.562;9.192;2023-08-12T01:21:59;6.07;;;5.23;;
10299;SDS011;5195;48.562;9.192;2023-08-12T01:24:25;6.45;;;5.82;;
10299;SDS011;5195;48.562;9.192;2023-08-12T01:26:50;5.80;;;5.20;;
10299;SDS011;5195;48.562;9.192;2023-08-12T01:29:16;6.35;;;5.87;;
10299;SDS011;5195;48.562;9.192;2023-08-12T01:31:45;6.65;;;6.03;;
10299;SDS011;5195;48.562;9.192;2023-08-12T01:34:12;6.60;;;6.00;;
10299;SDS011;5195;48.562;9.192;2023-08-12T01:36:39;6.40;;;6.00;;
10299;SDS011;5195;48.562;9.192;2023-08-12T01:39:05;6.10;;;5.65;;
10299;SDS011;5195;48.562;9.192;2023-08-12T01:41:30;5.87;;;5.57;;
10299;SDS011;5195;48.562;9.192;2023-08-12T01:43:56;6.93;;;6.43;;
10299;SDS011;5195;48.562;9.192;2023-08-12T01:46:22;6.43;;;5.82;;
10299;SDS011;5195;48.562;9.192;2023-08-12T01:48:47;6.20;;;5.80;;
10299;SDS011;5195;48.562;9.192;2023-08-12T01:51:13;5.73;;;5.43;;
10299;SDS011;5195;48.562;9.192;2023-08-12T01:53:38;5.80;;;5.30;;
10299;SDS011;5195;48.562;9.192;2023-08-12T01:56:05;6.87;;;5.18;;
10299;SDS011;5195;48.562;9.192;2023-08-12T01:58:30;5.97;;;5.53;;
10299;SDS011;5195;48.562;9.192;2023-08-12T02:00:58;6.20;;;5.60;;
10299;SDS011;5195;48.562;9.192;2023-08-12T02:03:24;5.90;;;5.53;;
10299;SDS011;5195;48.562;9.192;2023-08-12T02:05:49;6.85;;;6.00;;
10299;SDS011;5195;48.562;9.192;2023-08-12T02:08:15;5.53;;;5.23;;
10299;SDS011;5195;48.562;9.192;2023-08-12T02:10:40;6.03;;;5.62;;
10299;SDS011;5195;48.562;9.192;2023-08-12T02:13:06;5.93;;;5.43;;
10299;SDS011;5195;48.562;9.192;2023-08-12T02:15:31;6.30;;;5.80;;
10299;SDS011;5195;48.562;9.192;2023-08-12T02:17:57;6.50;;;5.90;;
10299;SDS011;5195;48.562;9.192;2023-08-12T02:20:23;6.87;;;5.60;;
10299;SDS011;5195;48.562;9.192;2023-08-12T02:22:48;5.73;;;4.90;;
10299;SDS011;5195;48.562;9.192;2023-08-12T02:25:14;6.57;;;5.80;;
10299;SDS011;5195;48.562;9.192;2023-08-12T02:27:39;6.07;;;5.60;;
10299;SDS011;5195;48.562;9.192;2023-08-12T02:30:05;6.67;;;5.10;;
10299;SDS011;5195;48.562;9.192;2023-08-12T02:32:31;5.80;;;5.40;;
10299;SDS011;5195;48.562;9.192;2023-08-12T02:34:56;6.17;;;5.70;;
10299;SDS011;5195;48.562;9.192;2023-08-12T02:37:22;6.33;;;5.30;;
10299;SDS011;5195;48.562;9.192;2023-08-12T02:39:47;6.00;;;5.60;;
10299;SDS011;5195;48.562;9.192;2023-08-12T02:42:13;6.43;;;5.97;;
10299;SDS011;5195;48.562;9.192;2023-08-12T02:44:38;5.80;;;5.27;;
10299;SDS011;5195;48.562;9.192;2023-08-12T02:50:30;6.13;;;5.53;;
10299;SDS011;5195;48.562;9.192;2023-08-12T02:52:56;6.27;;;5.63;;
10299;SDS011;5195;48.562;9.192;2023-08-12T02:55:21;6.25;;;5.75;;
10299;SDS011;5195;48.562;9.192;2023-08-12T02:57:47;6.82;;;5.95;;
10299;SDS011;5195;48.562;9.192;2023-08-12T03:00:14;6.03;;;5.63;;
10299;SDS011;5195;48.562;9.192;2023-08-12T03:02:43;5.90;;;5.50;;
10299;SDS011;5195;48.562;9.192;2023-08-12T03:05:09;5.70;;;5.30;;
10299;SDS011;5195;48.562;9.192;2023-08-12T03:07:35;5.63;;;5.33;;
10299;SDS011;5195;48.562;9.192;2023-08-12T03:10:00;6.00;;;5.60;;
10299;SDS011;5195;48.562;9.192;2023-08-12T03:12:26;6.33;;;5.73;;
10299;SDS011;5195;48.562;9.192;2023-08-12T03:14:51;5.97;;;5.55;;
10299;SDS011;5195;48.562;9.192;2023-08-12T03:17:17;5.85;;;5.45;;
10299;SDS011;5195;48.562;9.192;2023-08-12T03:19:43;6.30;;;5.80;;
10299;SDS011;5195;48.562;9.192;2023-08-12T03:22:08;5.67;;;5.03;;
10299;SDS011;5195;48.562;9.192;2023-08-12T03:24:34;6.40;;;5.87;;
10299;SDS011;5195;48.562;9.192;2023-08-12T03:27:00;6.30;;;5.80;;
10299;SDS011;5195;48.562;9.192;2023-08-12T03:29:27;6.40;;;5.90;;
10299;SDS011;5195;48.562;9.192;2023-08-12T03:31:53;6.07;;;5.77;;
10299;SDS011;5195;48.562;9.192;2023-08-12T03:34:18;5.87;;;5.47;;
10299;SDS011;5195;48.562;9.192;2023-08-12T03:36:44;6.83;;;5.67;;
10299;SDS011;5195;48.562;9.192;2023-08-12T03:39:10;6.85;;;6.25;;
10299;SDS011;5195;48.562;9.192;2023-08-12T03:41:35;7.00;;;6.30;;
10299;SDS011;5195;48.562;9.192;2023-08-12T03:44:01;7.03;;;5.63;;
10299;SDS011;5195;48.562;9.192;2023-08-12T03:46:26;6.32;;;5.87;;
10299;SDS011;5195;48.562;9.192;2023-08-12T03:48:52;6.00;;;5.70;;
10299;SDS011;5195;48.562;9.192;2023-08-12T03:51:17;6.70;;;6.20;;
10299;SDS011;5195;48.562;9.192;2023-08-12T03:53:43;6.20;;;5.70;;
10299;SDS011;5195;48.562;9.192;2023-08-12T03:56:09;5.43;;;4.93;;
10299;SDS011;5195;48.562;9.192;2023-08-12T03:58:35;8.73;;;5.80;;
10299;SDS011;5195;48.562;9.192;2023-08-12T04:01:00;6.20;;;5.72;;
10299;SDS011;5195;48.562;9.192;2023-08-12T04:03:26;5.53;;;5.10;;
10299;SDS011;5195;48.562;9.192;2023-08-12T04:05:52;7.20;;;5.70;;
10299;SDS011;5195;48.562;9.192;2023-08-12T04:08:18;6.20;;;5.60;;
10299;SDS011;5195;48.562;9.192;2023-08-12T04:10:46;6.43;;;5.67;;
10299;SDS011;5195;48.562;9.192;2023-08-12T04:13:13;6.40;;;5.80;;
10299;SDS011;5195;48.562;9.192;2023-08-12T04:15:39;5.57;;;5.28;;
10299;SDS011;5195;48.562;9.192;2023-08-12T04:18:05;5.60;;;5.12;;
10299;SDS011;5195;48.562;9.192;2023-08-12T04:20:30;6.53;;;6.03;;
10299;SDS011;5195;48.562;9.192;2023-08-12T04:22:57;5.93;;;5.53;;
10299;SDS011;5195;48.562;9.192;2023-08-12T04:25:22;6.47;;;5.95;;
10299;SDS011;5195;48.562;9.192;2023-08-12T04:27:48;5.70;;;5.30;;
10299;SDS011;5195;48.562;9.192;2023-08-12T04:30:15;6.20;;;5.70;;
10299;SDS011;5195;48.562;9.192;2023-08-12T04:32:42;5.77;;;5.37;;
10299;SDS011;5195;48.562;9.192;2023-08-12T04:35:07;6.17;;;5.77;;
10299;SDS011;5195;48.562;9.192;2023-08-12T04:37:33;5.90;;;5.60;;
10299;SDS011;5195;48.562;9.192;2023-08-12T04:39:59;5.83;;;5.43;;
10299;SDS011;5195;48.562;9.192;2023-08-12T04:42:25;6.57;;;6.03;;
10299;SDS011;5195;48.562;9.192;2023-08-12T04:44:51;7.27;;;6.43;;
10299;SDS011;5195;48.562;9.192;2023-08-12T04:47:16;6.23;;;5.83;;
10299;SDS011;5195;48.562;9.192;2023-08-12T04:49:42;6.07;;;5.75;;
10299;SDS011;5195;48.562;9.192;2023-08-12T04:52:07;6.82;;;6.32;;
10299;SDS011;5195;48.562;9.192;2023-08-12T04:54:33;6.85;;;6.25;;
10299;SDS011;5195;48.562;9.192;2023-08-12T04:56:59;6.00;;;5.50;;
10299;SDS011;5195;48.562;9.192;2023-08-12T04:59:25;6.95;;;6.50;;
10299;SDS011;5195;48.562;9.192;2023-08-12T05:01:50;7.32;;;6.72;;
10299;SDS011;5195;48.562;9.192;2023-08-12T05:04:16;6.33;;;5.60;;
10299;SDS011;5195;48.562;9.192;2023-08-12T05:06:41;6.07;;;5.70;;
10299;SDS011;5195;48.562;9.192;2023-08-12T05:09:07;5.70;;;5.20;;
10299;SDS011;5195;48.562;9.192;2023-08-12T05:11:33;5.80;;;5.40;;
10299;SDS011;5195;48.562;9.192;2023-08-12T05:13:58;5.93;;;5.62;;
10299;SDS011;5195;48.562;9.192;2023-08-12T05:16:24;5.47;;;5.17;;
10299;SDS011;5195;48.562;9.192;2023-08-12T05:18:50;6.62;;;6.00;;
10299;SDS011;5195;48.562;9.192;2023-08-12T05:21:16;6.90;;;6.40;;
10299;SDS011;5195;48.562;9.192;2023-08-12T05:23:41;6.13;;;5.70;;
10299;SDS011;5195;48.562;9.192;2023-08-12T05:26:07;6.78;;;6.28;;
10299;SDS011;5195;48.562;9.192;2023-08-12T05:28:32;6.30;;;5.85;;
10299;SDS011;5195;48.562;9.192;2023-08-12T05:30:58;6.60;;;6.20;;
10299;SDS011;5195;48.562;9.192;2023-08-12T05:33:23;5.93;;;5.40;;
10299;SDS011;5195;48.562;9.192;2023-08-12T05:35:49;6.50;;;6.03;;
10299;SDS011;5195;48.562;9.192;2023-08-12T05:38:15;6.45;;;5.85;;
10299;SDS011;5195;48.562;9.192;2023-08-12T05:40:40;6.22;;;5.70;;
10299;SDS011;5195;48.562;9.192;2023-08-12T05:43:06;5.50;;;5.20;;
10299;SDS011;5195;48.562;9.192;2023-08-12T05:45:31;6.47;;;6.00;;
10299;SDS011;5195;48.562;9.192;2023-08-12T05:47:58;6.10;;;5.53;;
10299;SDS011;5195;48.562;9.192;2023-08-12T05:50:23;6.18;;;5.68;;
10299;SDS011;5195;48.562;9.192;2023-08-12T05:52:49;6.67;;;6.07;;
10299;SDS011;5195;48.562;9.192;2023-08-12T05:55:14;6.43;;;5.83;;
10299;SDS011;5195;48.562;9.192;2023-08-12T05:57:41;6.10;;;5.67;;
10299;SDS011;5195;48.562;9.192;2023-08-12T06:00:06;6.45;;;5.70;;
10299;SDS011;5195;48.562;9.192;2023-08-12T06:02:33;5.47;;;5.17;;
10299;SDS011;5195;48.562;9.192;2023-08-12T06:04:58;5.53;;;5.03;;
10299;SDS011;5195;48.562;9.192;2023-08-12T06:07:25;6.40;;;5.90;;
10299;SDS011;5195;48.562;9.192;2023-08-12T06:09:50;5.90;;;5.40;;
10299;SDS011;5195;48.562;9.192;2023-08-12T06:12:16;5.70;;;5.30;;
10299;SDS011;5195;48.562;9.192;2023-08-12T06:14:41;6.20;;;5.70;;
10299;SDS011;5195;48.562;9.192;2023-08-12T06:17:08;5.03;;;4.57;;
10299;SDS011;5195;48.562;9.192;2023-08-12T06:19:33;5.90;;;5.30;;
10299;SDS011;5195;48.562;9.192;2023-08-12T06:21:59;5.40;;;5.00;;
10299;SDS011;5195;48.562;9.192;2023-08-12T06:24:24;5.95;;;5.50;;
10299;SDS011;5195;48.562;9.192;2023-08-12T06:26:50;5.10;;;4.80;;
10299;SDS011;5195;48.562;9.192;2023-08-12T06:29:15;6.63;;;4.80;;
10299;SDS011;5195;48.562;9.192;2023-08-12T06:31:41;5.70;;;5.30;;
10299;SDS011;5195;48.562;9.192;2023-08-12T06:34:06;5.60;;;5.20;;
10299;SDS011;5195;48.562;9.192;2023-08-12T06:36:32;5.78;;;5.15;;
10299;SDS011;5195;48.562;9.192;2023-08-12T06:38:58;5.70;;;5.03;;
10299;SDS011;5195;48.562;9.192;2023-08-12T06:41:23;4.68;;;4.18;;
10299;SDS011;5195;48.562;9.192;2023-08-12T06:43:49;5.35;;;4.95;;
10299;SDS011;5195;48.562;9.192;2023-08-12T06:46:14;5.33;;;5.00;;
10299;SDS011;5195;48.562;9.192;2023-08-12T06:48:40;5.43;;;5.00;;
10299;SDS011;5195;48.562;9.192;2023-08-12T06:51:05;5.70;;;4.70;;
10299;SDS011;5195;48.562;9.192;2023-08-12T06:53:31;5.85;;;5.45;;
10299;SDS011;5195;48.562;9.192;2023-08-12T06:55:57;5.57;;;5.07;;
10299;SDS011;5195;48.562;9.192;2023-08-12T06:58:22;5.20;;;4.70;;
10299;SDS011;5195;48.562;9.192;2023-08-12T07:00:48;7.23;;;5.20;;
10299;SDS011;5195;48.562;9.192;2023-08-12T07:03:13;4.97;;;4.67;;
10299;SDS011;5195;48.562;9.192;2023-08-12T07:05:39;5.10;;;4.70;;
10299;SDS011;5195;48.562;9.192;2023-08-12T07:08:04;5.00;;;4.70;;
10299;SDS011;5195;48.562;9.192;2023-08-12T07:10:30;5.73;;;4.90;;
10299;SDS011;5195;48.562;9.192;2023-08-12T07:12:56;5.10;;;4.43;;
10299;SDS011;5195;48.562;9.192;2023-08-12T07:15:21;4.83;;;4.40;;
10299;SDS011;5195;48.562;9.192;2023-08-12T07:17:47;4.80;;;4.50;;
10299;SDS011;5195;48.562;9.192;2023-08-12T07:20:12;4.07;;;3.87;;
10299;SDS011;5195;48.562;9.192;2023-08-12T07:22:38;4.53;;;4.23;;
10299;SDS011;5195;48.562;9.192;2023-08-12T07:25:04;4.70;;;4.40;;
10299;SDS011;5195;48.562;9.192;2023-08-12T07:27:30;4.60;;;4.20;;
10299;SDS011;5195;48.562;9.192;2023-08-12T07:29:56;4.57;;;4.18;;
10299;SDS011;5195;48.562;9.192;2023-08-12T07:32:21;5.47;;;4.30;;
10299;SDS011;5195;48.562;9.192;2023-08-12T07:34:47;4.65;;;4.25;;
10299;SDS011;5195;48.562;9.192;2023-08-12T07:37:12;5.12;;;4.40;;
10299;SDS011;5195;48.562;9.192;2023-08-12T07:39:38;4.47;;;4.17;;
10299;SDS011;5195;48.562;9.192;2023-08-12T07:42:04;3.87;;;3.50;;
10299;SDS011;5195;48.562;9.192;2023-08-12T07:44:30;4.43;;;4.13;;
10299;SDS011;5195;48.562;9.192;2023-08-12T07:46:55;5.47;;;4.00;;
10299;SDS011;5195;48.562;9.192;2023-08-12T07:49:21;4.27;;;3.97;;
10299;SDS011;5195;48.562;9.192;2023-08-12T07:51:46;4.53;;;4.12;;
10299;SDS011;5195;48.562;9.192;2023-08-12T07:54:12;5.35;;;4.15;;
10299;SDS011;5195;48.562;9.192;2023-08-12T07:56:38;5.90;;;4.20;;
10299;SDS011;5195;48.562;9.192;2023-08-12T07:59:03;5.07;;;3.90;;
10299;SDS011;5195;48.562;9.192;2023-08-12T08:01:29;5.57;;;3.80;;
10299;SDS011;5195;48.562;9.192;2023-08-12T08:03:56;4.20;;;3.80;;
10299;SDS011;5195;48.562;9.192;2023-08-12T08:06:22;4.90;;;4.07;;
10299;SDS011;5195;48.562;9.192;2023-08-12T08:08:48;4.20;;;3.80;;
10299;SDS011;5195;48.562;9.192;2023-08-12T08:11:14;4.93;;;3.80;;
10299;SDS011;5195;48.562;9.192;2023-08-12T08:13:39;4.10;;;3.90;;
10299;SDS011;5195;48.562;9.192;2023-08-12T08:16:05;4.20;;;3.80;;
10299;SDS011;5195;48.562;9.192;2023-08-12T08:18:31;3.77;;;3.67;;
10299;SDS011;5195;48.562;9.192;2023-08-12T08:20:56;4.13;;;3.93;;
10299;SDS011;5195;48.562;9.192;2023-08-12T08:23:22;4.45;;;4.05;;
10299;SDS011;5195;48.562;9.192;2023-08-12T08:25:47;4.97;;;3.90;;
10299;SDS011;5195;48.562;9.192;2023-08-12T08:28:13;4.27;;;3.87;;
10299;SDS011;5195;48.562;9.192;2023-08-12T08:30:38;4.20;;;3.80;;
10299;SDS011;5195;48.562;9.192;2023-08-12T08:33:04;3.90;;;3.67;;
10299;SDS011;5195;48.562;9.192;2023-08-12T08:35:30;4.10;;;3.80;;
10299;SDS011;5195;48.562;9.192;2023-08-12T08:37:56;3.87;;;3.57;;
10299;SDS011;5195;48.562;9.192;2023-08-12T08:40:22;5.83;;;4.20;;
10299;SDS011;5195;48.562;9.192;2023-08-12T08:42:50;4.55;;;4.15;;
10299;SDS011;5195;48.562;9.192;2023-08-12T08:45:13;4.20;;;3.90;;
10299;SDS011;5195;48.562;9.192;2023-08-12T08:47:39;4.30;;;4.00;;
10299;SDS011;5195;48.562;9.192;2023-08-12T08:50:04;6.20;;;4.20;;
10299;SDS011;5195;48.562;9.192;2023-08-12T08:52:30;4.62;;;4.05;;
10299;SDS011;5195;48.562;9.192;2023-08-12T08:54:56;4.05;;;3.75;;
10299;SDS011;5195;48.562;9.192;2023-08-12T08:57:21;4.27;;;3.83;;
10299;SDS011;5195;48.562;9.192;2023-08-12T08:59:47;5.53;;;3.80;;
10299;SDS011;5195;48.562;9.192;2023-08-12T09:02:16;4.20;;;3.90;;
10299;SDS011;5195;48.562;9.192;2023-08-12T09:04:41;7.32;;;3.83;;
10299;SDS011;5195;48.562;9.192;2023-08-12T09:07:06;4.07;;;3.65;;
10299;SDS011;5195;48.562;9.192;2023-08-12T09:09:32;6.80;;;3.83;;
10299;SDS011;5195;48.562;9.192;2023-08-12T09:11:58;4.03;;;3.60;;
10299;SDS011;5195;48.562;9.192;2023-08-12T09:14:23;4.83;;;3.83;;
10299;SDS011;5195;48.562;9.192;2023-08-12T09:16:49;3.93;;;3.53;;
10299;SDS011;5195;48.562;9.192;2023-08-12T09:19:15;4.20;;;3.97;;
10299;SDS011;5195;48.562;9.192;2023-08-12T09:21:41;4.97;;;3.83;;
10299;SDS011;5195;48.562;9.192;2023-08-12T09:24:07;3.90;;;3.60;;
10299;SDS011;5195;48.562;9.192;2023-08-12T09:26:33;4.03;;;3.70;;
10299;SDS011;5195;48.562;9.192;2023-08-12T09:28:58;4.03;;;3.73;;
10299;SDS011;5195;48.562;9.192;2023-08-12T09:31:24;4.07;;;3.60;;
10299;SDS011;5195;48.562;9.192;2023-08-12T09:33:49;4.00;;;3.80;;
10299;SDS011;5195;48.562;9.192;2023-08-12T09:36:15;4.22;;;3.95;;
10299;SDS011;5195;48.562;9.192;2023-08-12T09:38:40;5.68;;;3.80;;
10299;SDS011;5195;48.562;9.192;2023-08-12T09:41:06;4.23;;;3.57;;
10299;SDS011;5195;48.562;9.192;2023-08-12T09:43:32;3.77;;;3.47;;
10299;SDS011;5195;48.562;9.192;2023-08-12T09:45:58;4.70;;;3.33;;
10299;SDS011;5195;48.562;9.192;2023-08-12T09:48:26;3.97;;;3.77;;
10299;SDS011;5195;48.562;9.192;2023-08-12T09:50:52;4.13;;;3.83;;
10299;SDS011;5195;48.562;9.192;2023-08-12T09:53:17;4.73;;;3.73;;
10299;SDS011;5195;48.562;9.192;2023-08-12T09:55:44;6.53;;;3.93;;
10299;SDS011;5195;48.562;9.192;2023-08-12T09:58:11;4.30;;;3.90;;
10299;SDS011;5195;48.562;9.192;2023-08-12T10:00:37;4.30;;;3.90;;
10299;SDS011;5195;48.562;9.192;2023-08-12T10:03:03;4.67;;;3.80;;
10299;SDS011;5195;48.562;9.192;2023-08-12T10:05:28;4.30;;;4.10;;
10299;SDS011;5195;48.562;9.192;2023-08-12T10:07:54;4.00;;;3.80;;
10299;SDS011;5195;48.562;9.192;2023-08-12T10:10:20;4.03;;;3.73;;
10299;SDS011;5195;48.562;9.192;2023-08-12T10:12:46;3.70;;;3.50;;
10299;SDS011;5195;48.562;9.192;2023-08-12T10:15:12;4.15;;;3.85;;
10299;SDS011;5195;48.562;9.192;2023-08-12T10:17:38;5.23;;;3.93;;
10299;SDS011;5195;48.562;9.192;2023-08-12T10:20:03;4.50;;;4.10;;
10299;SDS011;5195;48.562;9.192;2023-08-12T10:22:29;4.37;;;4.07;;
10299;SDS011;5195;48.562;9.192;2023-08-12T10:24:54;4.12;;;3.65;;
10299;SDS011;5195;48.562;9.192;2023-08-12T10:27:20;4.27;;;3.83;;
10299;SDS011;5195;48.562;9.192;2023-08-12T10:29:46;4.93;;;3.60;;
10299;SDS011;5195;48.562;9.192;2023-08-12T10:32:11;4.30;;;3.97;;
10299;SDS011;5195;48.562;9.192;2023-08-12T10:34:37;4.10;;;3.80;;
10299;SDS011;5195;48.562;9.192;2023-08-12T10:37:02;3.53;;;3.33;;
10299;SDS011;5195;48.562;9.192;2023-08-12T10:39:28;3.80;;;3.50;;
10299;SDS011;5195;48.562;9.192;2023-08-12T10:41:56;3.83;;;3.63;;
10299;SDS011;5195;48.562;9.192;2023-08-12T10:44:26;13.53;;;3.73;;
10299;SDS011;5195;48.562;9.192;2023-08-12T10:46:52;5.53;;;3.53;;
10299;SDS011;5195;48.562;9.192;2023-08-12T10:49:18;3.90;;;3.60;;
10299;SDS011;5195;48.562;9.192;2023-08-12T10:51:52;3.43;;;3.33;;
10299;SDS011;5195;48.562;9.192;2023-08-12T10:54:20;3.90;;;3.70;;
10299;SDS011;5195;48.562;9.192;2023-08-12T10:57:53;5.57;;;3.50;;
10299;SDS011;5195;48.562;9.192;2023-08-12T11:04:57;3.23;;;3.10;;
10299;SDS011;5195;48.562;9.192;2023-08-12T11:07:27;3.62;;;3.33;;
10299;SDS011;5195;48.562;9.192;2023-08-12T11:09:52;4.85;;;3.12;;
10299;SDS011;5195;48.562;9.192;2023-08-12T11:12:17;3.70;;;3.50;;
10299;SDS011;5195;48.562;9.192;2023-08-12T11:14:53;3.53;;;3.22;;
10299;SDS011;5195;48.562;9.192;2023-08-12T11:17:15;3.27;;;2.97;;
10299;SDS011;5195;48.562;9.192;2023-08-12T11:19:41;5.05;;;3.50;;
10299;SDS011;5195;48.562;9.192;2023-08-12T11:22:06;3.70;;;3.40;;
10299;SDS011;5195;48.562;9.192;2023-08-12T11:24:32;5.10;;;3.70;;
10299;SDS011;5195;48.562;9.192;2023-08-12T11:26:57;3.60;;;3.40;;
10299;SDS011;5195;48.562;9.192;2023-08-12T11:29:23;3.27;;;3.10;;
10299;SDS011;5195;48.562;9.192;2023-08-12T11:31:48;3.43;;;3.23;;
10299;SDS011;5195;48.562;9.192;2023-08-12T11:34:15;4.25;;;3.42;;
10299;SDS011;5195;48.562;9.192;2023-08-12T11:36:39;3.37;;;3.17;;
10299;SDS011;5195;48.562;9.192;2023-08-12T11:39:05;6.10;;;3.30;;
10299;SDS011;5195;48.562;9.192;2023-08-12T11:41:33;2.97;;;2.77;;
10299;SDS011;5195;48.562;9.192;2023-08-12T11:43:56;2.77;;;2.50;;
10299;SDS011;5195;48.562;9.192;2023-08-12T11:46:22;4.07;;;2.67;;
10299;SDS011;5195;48.562;9.192;2023-08-12T11:48:47;2.60;;;2.40;;
10299;SDS011;5195;48.562;9.192;2023-08-12T11:51:13;2.87;;;2.60;;
10299;SDS011;5195;48.562;9.192;2023-08-12T11:53:38;2.53;;;2.43;;
10299;SDS011;5195;48.562;9.192;2023-08-12T11:56:04;3.08;;;2.40;;
10299;SDS011;5195;48.562;9.192;2023-08-12T11:58:35;3.43;;;2.57;;
10299;SDS011;5195;48.562;9.192;2023-08-12T12:00:55;2.50;;;2.30;;
10299;SDS011;5195;48.562;9.192;2023-08-12T12:03:21;2.80;;;2.60;;
10299;SDS011;5195;48.562;9.192;2023-08-12T12:05:46;2.90;;;2.50;;
10299;SDS011;5195;48.562;9.192;2023-08-12T12:08:13;3.47;;;2.93;;
10299;SDS011;5195;48.562;9.192;2023-08-12T12:10:37;4.77;;;3.10;;
10299;SDS011;5195;48.562;9.192;2023-08-12T12:13:04;2.92;;;2.70;;
10299;SDS011;5195;48.562;9.192;2023-08-12T12:15:30;3.83;;;2.50;;
10299;SDS011;5195;48.562;9.192;2023-08-12T12:17:55;2.50;;;2.30;;
10299;SDS011;5195;48.562;9.192;2023-08-12T12:20:21;2.77;;;2.57;;
10299;SDS011;5195;48.562;9.192;2023-08-12T12:22:47;2.80;;;2.60;;
10299;SDS011;5195;48.562;9.192;2023-08-12T12:25:13;2.80;;;2.60;;
10299;SDS011;5195;48.562;9.192;2023-08-12T12:27:39;4.30;;;2.83;;
10299;SDS011;5195;48.562;9.192;2023-08-12T12:30:04;3.70;;;2.63;;
10299;SDS011;5195;48.562;9.192;2023-08-12T12:32:31;8.67;;;2.63;;
10299;SDS011;5195;48.562;9.192;2023-08-12T12:34:55;3.12;;;2.80;;
10299;SDS011;5195;48.562;9.192;2023-08-12T12:37:22;3.13;;;2.90;;
10299;SDS011;5195;48.562;9.192;2023-08-12T12:39:47;3.10;;;2.80;;
10299;SDS011;5195;48.562;9.192;2023-08-12T12:42:13;2.92;;;2.72;;
10299;SDS011;5195;48.562;9.192;2023-08-12T12:44:38;3.73;;;3.00;;
10299;SDS011;5195;48.562;9.192;2023-08-12T12:47:04;2.90;;;2.70;;
10299;SDS011;5195;48.562;9.192;2023-08-12T12:49:30;5.00;;;2.83;;
10299;SDS011;5195;48.562;9.192;2023-08-12T12:51:55;4.57;;;3.80;;
10299;SDS011;5195;48.562;9.192;2023-08-12T12:54:22;5.20;;;4.13;;
10299;SDS011;5195;48.562;9.192;2023-08-12T12:56:47;10.50;;;3.97;;
10299;SDS011;5195;48.562;9.192;2023-08-12T12:59:13;10.50;;;5.33;;
10299;SDS011;5195;48.562;9.192;2023-08-12T13:01:39;6.10;;;3.80;;
10299;SDS011;5195;48.562;9.192;2023-08-12T13:04:04;4.80;;;3.00;;
10299;SDS011;5195;48.562;9.192;2023-08-12T13:06:30;3.37;;;2.87;;
10299;SDS011;5195;48.562;9.192;2023-08-12T13:08:55;3.53;;;3.10;;
10299;SDS011;5195;48.562;9.192;2023-08-12T13:11:21;5.33;;;3.23;;
10299;SDS011;5195;48.562;9.192;2023-08-12T13:13:46;3.40;;;3.03;;
10299;SDS011;5195;48.562;9.192;2023-08-12T13:16:12;3.87;;;3.10;;
10299;SDS011;5195;48.562;9.192;2023-08-12T13:18:38;4.53;;;3.40;;
10299;SDS011;5195;48.562;9.192;2023-08-12T13:21:04;3.63;;;3.33;;
10299;SDS011;5195;48.562;9.192;2023-08-12T13:23:30;2.83;;;2.40;;
10299;SDS011;5195;48.562;9.192;2023-08-12T13:25:56;3.13;;;2.87;;
10299;SDS011;5195;48.562;9.192;2023-08-12T13:28:22;3.00;;;2.80;;
10299;SDS011;5195;48.562;9.192;2023-08-12T13:34:13;2.77;;;2.53;;
10299;SDS011;5195;48.562;9.192;2023-08-12T13:36:39;2.50;;;2.30;;
10299;SDS011;5195;48.562;9.192;2023-08-12T13:39:04;2.77;;;2.57;;
10299;SDS011;5195;48.562;9.192;2023-08-12T13:41:30;3.20;;;3.00;;
10299;SDS011;5195;48.562;9.192;2023-08-12T13:43:55;2.73;;;2.53;;
10299;SDS011;5195;48.562;9.192;2023-08-12T13:46:22;3.00;;;2.80;;
10299;SDS011;5195;48.562;9.192;2023-08-12T13:48:48;3.00;;;2.80;;
10299;SDS011;5195;48.562;9.192;2023-08-12T13:51:14;2.90;;;2.70;;
10299;SDS011;5195;48.562;9.192;2023-08-12T13:53:39;3.25;;;2.58;;
10299;SDS011;5195;48.562;9.192;2023-08-12T13:56:05;3.77;;;2.50;;
10299;SDS011;5195;48.562;9.192;2023-08-12T13:58:31;3.00;;;2.70;;
10299;SDS011;5195;48.562;9.192;2023-08-12T14:00:57;2.30;;;2.20;;
10299;SDS011;5195;48.562;9.192;2023-08-12T14:03:24;3.60;;;2.50;;
10299;SDS011;5195;48.562;9.192;2023-08-12T14:05:49;2.57;;;2.37;;
10299;SDS011;5195;48.562;9.192;2023-08-12T14:08:15;2.40;;;2.20;;
10299;SDS011;5195;48.562;9.192;2023-08-12T14:10:41;2.33;;;2.13;;
10299;SDS011;5195;48.562;9.192;2023-08-12T14:13:06;2.40;;;2.03;;
10299;SDS011;5195;48.562;9.192;2023-08-12T14:15:32;2.23;;;2.13;;
10299;SDS011;5195;48.562;9.192;2023-08-12T14:17:58;2.13;;;2.03;;
10299;SDS011;5195;48.562;9.192;2023-08-12T14:20:23;2.33;;;2.10;;
10299;SDS011;5195;48.562;9.192;2023-08-12T14:22:49;3.30;;;2.70;;
10299;SDS011;5195;48.562;9.192;2023-08-12T14:25:15;2.70;;;2.50;;
10299;SDS011;5195;48.562;9.192;2023-08-12T14:27:42;3.20;;;2.90;;
10299;SDS011;5195;48.562;9.192;2023-08-12T14:30:07;4.15;;;2.60;;
10299;SDS011;5195;48.562;9.192;2023-08-12T14:32:33;3.40;;;3.20;;
10299;SDS011;5195;48.562;9.192;2023-08-12T14:34:59;2.47;;;2.30;;
10299;SDS011;5195;48.562;9.192;2023-08-12T14:37:25;2.60;;;2.40;;
10299;SDS011;5195;48.562;9.192;2023-08-12T14:39:51;2.90;;;2.60;;
10299;SDS011;5195;48.562;9.192;2023-08-12T14:42:16;2.40;;;2.30;;
10299;SDS011;5195;48.562;9.192;2023-08-12T14:44:42;3.08;;;2.80;;
10299;SDS011;5195;48.562;9.192;2023-08-12T14:47:07;3.87;;;3.47;;
10299;SDS011;5195;48.562;9.192;2023-08-12T14:49:33;2.90;;;2.70;;
10299;SDS011;5195;48.562;9.192;2023-08-12T14:51:58;3.43;;;2.30;;
10299;SDS011;5195;48.562;9.192;2023-08-12T14:54:25;2.97;;;2.77;;
10299;SDS011;5195;48.562;9.192;2023-08-12T14:56:51;2.87;;;2.60;;
10299;SDS011;5195;48.562;9.192;2023-08-12T14:59:16;2.90;;;2.70;;
10299;SDS011;5195;48.562;9.192;2023-08-12T15:01:42;2.90;;;2.70;;
10299;SDS011;5195;48.562;9.192;2023-08-12T15:04:07;2.97;;;2.77;;
10299;SDS011;5195;48.562;9.192;2023-08-12T15:06:33;3.20;;;3.00;;
10299;SDS011;5195;48.562;9.192;2023-08-12T15:08:59;3.13;;;2.70;;